Aérodrome :
LOGIN :

S'inscrire | Disclaimer

   EN    FR    IT 

 










Légende :    VFR   VFR Marginal   IFR   IFR Intensif   IFR Très Intensif
Visi : 
Plafond : 
>= 8 km
>= 3000ft
5 à 8 km
1000 à 3000 ft
1500m à 5 km
500 à 1000 ft
800 à 1500m
200 à 500 ft
< 800m
< 200 ft
Symboles :   Orages  Brouillard  Fortes neiges  Fortes précipitations  Vent > 20 kt
SIGMETs :   Divers  Orages  Givrage  Turbulence  Onde Orograph.  Cendres Volcan.






- Altitude de l'aérodrome : 17 ft
- Code IATA : DND


EGPN - Dundee

DERNIER METAR :
  • 100950Z 21016G31KT 9999 VCSH SCT020 BKN040 09/07 Q0992

METARs EXPIRÉS :
  • 100920Z 20017G27KT 170V240 9999 -SHRA SCT020 BKN048 09/07 Q0993
  • 100850Z 21013KT 180V240 9999 -SHRA SCT020 BKN048 09/06 Q0994
  • 100820Z 21019G30KT 9999 -SHRA SCT023 BKN036 09/06 Q0996
  • 100750Z 20026KT 9999 -SHRA SCT025 BKN036 09/06 Q0997
  • 100720Z 20024G36KT 170V230 9999 -SHRA SCT025 BKN036 09/06 Q0998

TAF TAF EGPN
Valide du 10 à 09h jusqu'au 10 à 18h UTC


100800Z 1009/1018 20018G28KT 9999 SCT020
TEMPO 1009/1017 6000 RA BKN013
PROB40
TEMPO 1009/1015 21025G38KT
BECMG 1015/1018 25016KT



MET'MAP, la Météo Aéronautique d'un coup d'oeil ! - Copyright ORBIFLY Décembre 2007 - Disclaimer

ORBIFLY MET'MAP TEAM :

Programmation & Développement : Alexandra Zaïnal
Sur une idée originale de : Baudouin d'Aumeries
Assistance à la programmation : Marc-Olivier Méhu
Soutien technique & logistique : Manuel Goepfert

Contact : metmap@orbifly.com




SOURCES & CREDITS :

   NOAA